sensor_id;sensor_type;location;lat;lon;timestamp;temperature;humidity
10543;DHT22;5320;50.046;10.314;2022-07-11T00:02:15;15.40;99.90
10543;DHT22;5320;50.046;10.314;2022-07-11T00:04:41;15.40;99.90
10543;DHT22;5320;50.046;10.314;2022-07-11T00:07:12;15.40;99.90
10543;DHT22;5320;50.046;10.314;2022-07-11T00:09:39;15.40;99.90
10543;DHT22;5320;50.046;10.314;2022-07-11T00:12:06;15.30;99.90
10543;DHT22;5320;50.046;10.314;2022-07-11T00:14:32;15.20;99.90
10543;DHT22;5320;50.046;10.314;2022-07-11T00:16:57;15.20;99.90
10543;DHT22;5320;50.046;10.314;2022-07-11T00:19:24;15.20;99.90
10543;DHT22;5320;50.046;10.314;2022-07-11T00:21:50;15.20;99.90
10543;DHT22;5320;50.046;10.314;2022-07-11T00:24:17;15.20;99.90
10543;DHT22;5320;50.046;10.314;2022-07-11T00:26:48;15.20;99.90
10543;DHT22;5320;50.046;10.314;2022-07-11T00:29:15;15.20;99.90
10543;DHT22;5320;50.046;10.314;2022-07-11T00:31:41;15.20;99.90
10543;DHT22;5320;50.046;10.314;2022-07-11T00:34:07;15.20;99.90
10543;DHT22;5320;50.046;10.314;2022-07-11T00:36:33;15.10;99.90
10543;DHT22;5320;50.046;10.314;2022-07-11T00:38:59;15.20;99.90
10543;DHT22;5320;50.046;10.314;2022-07-11T00:41:25;15.20;99.90
10543;DHT22;5320;50.046;10.314;2022-07-11T00:43:57;15.20;99.90
10543;DHT22;5320;50.046;10.314;2022-07-11T00:46:24;15.20;99.90
10543;DHT22;5320;50.046;10.314;2022-07-11T00:48:50;15.20;99.90
10543;DHT22;5320;50.046;10.314;2022-07-11T00:51:17;15.20;99.90
10543;DHT22;5320;50.046;10.314;2022-07-11T00:53:51;15.00;99.90
10543;DHT22;5320;50.046;10.314;2022-07-11T00:56:21;15.00;99.90
10543;DHT22;5320;50.046;10.314;2022-07-11T00:58:48;15.10;99.90
10543;DHT22;5320;50.046;10.314;2022-07-11T01:01:15;15.10;99.90
10543;DHT22;5320;50.046;10.314;2022-07-11T01:03:41;15.10;99.90
10543;DHT22;5320;50.046;10.314;2022-07-11T01:06:08;15.10;99.90
10543;DHT22;5320;50.046;10.314;2022-07-11T01:08:38;15.10;99.90
10543;DHT22;5320;50.046;10.314;2022-07-11T01:11:07;15.10;99.90
10543;DHT22;5320;50.046;10.314;2022-07-11T01:13:41;15.00;99.90
10543;DHT22;5320;50.046;10.314;2022-07-11T01:16:17;15.10;99.90
10543;DHT22;5320;50.046;10.314;2022-07-11T01:18:48;15.10;99.90
10543;DHT22;5320;50.046;10.314;2022-07-11T01:23:52;15.20;99.90
10543;DHT22;5320;50.046;10.314;2022-07-11T01:26:20;15.20;99.90
10543;DHT22;5320;50.046;10.314;2022-07-11T01:28:45;15.20;99.90
10543;DHT22;5320;50.046;10.314;2022-07-11T01:31:11;15.20;99.90
10543;DHT22;5320;50.046;10.314;2022-07-11T01:33:38;15.10;99.90
10543;DHT22;5320;50.046;10.314;2022-07-11T01:36:04;15.20;99.90
10543;DHT22;5320;50.046;10.314;2022-07-11T01:38:30;15.20;99.90
10543;DHT22;5320;50.046;10.314;2022-07-11T01:40:56;15.30;99.90
10543;DHT22;5320;50.046;10.314;2022-07-11T01:43:22;15.30;99.90
10543;DHT22;5320;50.046;10.314;2022-07-11T01:45:55;15.30;99.90
10543;DHT22;5320;50.046;10.314;2022-07-11T01:48:21;15.30;99.90
10543;DHT22;5320;50.046;10.314;2022-07-11T01:50:48;15.30;99.90
10543;DHT22;5320;50.046;10.314;2022-07-11T01:53:15;15.20;99.90
10543;DHT22;5320;50.046;10.314;2022-07-11T01:55:40;15.10;99.90
10543;DHT22;5320;50.046;10.314;2022-07-11T01:58:06;15.20;99.90
10543;DHT22;5320;50.046;10.314;2022-07-11T02:00:32;15.10;99.90
10543;DHT22;5320;50.046;10.314;2022-07-11T02:02:58;15.10;99.90
10543;DHT22;5320;50.046;10.314;2022-07-11T02:05:24;15.10;99.90
10543;DHT22;5320;50.046;10.314;2022-07-11T02:07:50;15.10;99.90
10543;DHT22;5320;50.046;10.314;2022-07-11T02:10:34;15.10;99.90
10543;DHT22;5320;50.046;10.314;2022-07-11T02:13:01;14.90;99.90
10543;DHT22;5320;50.046;10.314;2022-07-11T02:15:28;14.90;99.90
10543;DHT22;5320;50.046;10.314;2022-07-11T02:17:54;14.90;99.90
10543;DHT22;5320;50.046;10.314;2022-07-11T02:20:21;14.90;99.90
10543;DHT22;5320;50.046;10.314;2022-07-11T02:22:47;15.00;99.90
10543;DHT22;5320;50.046;10.314;2022-07-11T02:25:17;15.00;99.90
10543;DHT22;5320;50.046;10.314;2022-07-11T02:27:43;15.00;99.90
10543;DHT22;5320;50.046;10.314;2022-07-11T02:30:09;14.90;99.90
10543;DHT22;5320;50.046;10.314;2022-07-11T02:32:36;14.80;99.90
10543;DHT22;5320;50.046;10.314;2022-07-11T02:35:03;14.70;99.90
10543;DHT22;5320;50.046;10.314;2022-07-11T02:37:29;14.70;99.90
10543;DHT22;5320;50.046;10.314;2022-07-11T02:39:55;14.70;99.90
10543;DHT22;5320;50.046;10.314;2022-07-11T02:42:21;14.60;99.90
10543;DHT22;5320;50.046;10.314;2022-07-11T02:44:47;14.60;99.90
10543;DHT22;5320;50.046;10.314;2022-07-11T02:47:13;14.60;99.90
10543;DHT22;5320;50.046;10.314;2022-07-11T02:49:42;14.60;99.90
10543;DHT22;5320;50.046;10.314;2022-07-11T02:52:08;14.70;99.90
10543;DHT22;5320;50.046;10.314;2022-07-11T02:54:34;14.70;99.90
10543;DHT22;5320;50.046;10.314;2022-07-11T02:56:59;14.80;99.90
10543;DHT22;5320;50.046;10.314;2022-07-11T02:59:26;14.80;99.90
10543;DHT22;5320;50.046;10.314;2022-07-11T03:01:52;14.80;99.90
10543;DHT22;5320;50.046;10.314;2022-07-11T03:04:18;14.90;99.90
10543;DHT22;5320;50.046;10.314;2022-07-11T03:06:44;14.90;99.90
10543;DHT22;5320;50.046;10.314;2022-07-11T03:09:09;14.80;99.90
10543;DHT22;5320;50.046;10.314;2022-07-11T03:11:36;14.90;99.90
10543;DHT22;5320;50.046;10.314;2022-07-11T03:14:02;14.90;99.90
10543;DHT22;5320;50.046;10.314;2022-07-11T03:16:28;14.90;99.90
10543;DHT22;5320;50.046;10.314;2022-07-11T03:18:54;15.00;99.90
10543;DHT22;5320;50.046;10.314;2022-07-11T03:21:20;15.00;99.90
10543;DHT22;5320;50.046;10.314;2022-07-11T03:23:46;15.00;99.90
10543;DHT22;5320;50.046;10.314;2022-07-11T03:26:12;15.10;99.90
10543;DHT22;5320;50.046;10.314;2022-07-11T03:28:38;15.00;99.90
10543;DHT22;5320;50.046;10.314;2022-07-11T03:31:04;15.00;99.90
10543;DHT22;5320;50.046;10.314;2022-07-11T03:33:30;15.00;99.90
10543;DHT22;5320;50.046;10.314;2022-07-11T03:35:55;15.00;99.90
10543;DHT22;5320;50.046;10.314;2022-07-11T03:38:21;15.00;99.90
10543;DHT22;5320;50.046;10.314;2022-07-11T03:40:47;15.10;99.90
10543;DHT22;5320;50.046;10.314;2022-07-11T03:43:14;15.10;99.90
10543;DHT22;5320;50.046;10.314;2022-07-11T03:45:41;15.10;99.90
10543;DHT22;5320;50.046;10.314;2022-07-11T03:48:07;15.10;99.90
10543;DHT22;5320;50.046;10.314;2022-07-11T03:50:34;15.00;99.90
10543;DHT22;5320;50.046;10.314;2022-07-11T03:53:00;14.90;99.90
10543;DHT22;5320;50.046;10.314;2022-07-11T03:55:26;14.90;99.90
10543;DHT22;5320;50.046;10.314;2022-07-11T03:57:51;14.80;99.90
10543;DHT22;5320;50.046;10.314;2022-07-11T04:00:17;14.80;99.90
10543;DHT22;5320;50.046;10.314;2022-07-11T04:02:48;14.80;99.90
10543;DHT22;5320;50.046;10.314;2022-07-11T04:05:14;14.80;99.90
10543;DHT22;5320;50.046;10.314;2022-07-11T04:07:41;14.80;99.90
10543;DHT22;5320;50.046;10.314;2022-07-11T04:10:09;14.80;99.90
10543;DHT22;5320;50.046;10.314;2022-07-11T04:12:35;14.80;99.90
10543;DHT22;5320;50.046;10.314;2022-07-11T04:15:01;14.80;99.90
10543;DHT22;5320;50.046;10.314;2022-07-11T04:17:27;14.80;99.90
10543;DHT22;5320;50.046;10.314;2022-07-11T04:19:53;14.80;99.90
10543;DHT22;5320;50.046;10.314;2022-07-11T04:22:19;14.80;99.90
10543;DHT22;5320;50.046;10.314;2022-07-11T04:24:45;14.90;99.90
10543;DHT22;5320;50.046;10.314;2022-07-11T04:27:11;15.00;99.90
10543;DHT22;5320;50.046;10.314;2022-07-11T04:29:37;15.00;99.90
10543;DHT22;5320;50.046;10.314;2022-07-11T04:32:02;15.00;99.90
10543;DHT22;5320;50.046;10.314;2022-07-11T04:34:28;15.00;99.90
10543;DHT22;5320;50.046;10.314;2022-07-11T04:36:54;15.00;99.90
10543;DHT22;5320;50.046;10.314;2022-07-11T04:39:20;14.90;99.90
10543;DHT22;5320;50.046;10.314;2022-07-11T04:41:46;15.00;99.90
10543;DHT22;5320;50.046;10.314;2022-07-11T04:44:12;15.00;99.90
10543;DHT22;5320;50.046;10.314;2022-07-11T04:46:38;14.90;99.90
10543;DHT22;5320;50.046;10.314;2022-07-11T04:49:03;14.90;99.90
10543;DHT22;5320;50.046;10.314;2022-07-11T04:51:29;14.90;99.90
10543;DHT22;5320;50.046;10.314;2022-07-11T04:53:55;14.90;99.90
10543;DHT22;5320;50.046;10.314;2022-07-11T04:56:23;14.90;99.90
10543;DHT22;5320;50.046;10.314;2022-07-11T04:58:52;15.00;99.90
10543;DHT22;5320;50.046;10.314;2022-07-11T05:01:17;15.00;99.90
10543;DHT22;5320;50.046;10.314;2022-07-11T05:03:43;15.10;99.90
10543;DHT22;5320;50.046;10.314;2022-07-11T05:06:10;15.10;99.90
10543;DHT22;5320;50.046;10.314;2022-07-11T05:08:36;15.10;99.90
10543;DHT22;5320;50.046;10.314;2022-07-11T05:11:03;15.00;99.90
10543;DHT22;5320;50.046;10.314;2022-07-11T05:13:30;15.10;99.90
10543;DHT22;5320;50.046;10.314;2022-07-11T05:15:56;15.00;99.90
10543;DHT22;5320;50.046;10.314;2022-07-11T05:18:22;15.00;99.90
10543;DHT22;5320;50.046;10.314;2022-07-11T05:20:47;15.10;99.90
10543;DHT22;5320;50.046;10.314;2022-07-11T05:23:14;15.10;99.90
10543;DHT22;5320;50.046;10.314;2022-07-11T05:25:40;15.00;99.90
10543;DHT22;5320;50.046;10.314;2022-07-11T05:28:06;15.20;99.90
10543;DHT22;5320;50.046;10.314;2022-07-11T05:30:32;15.30;99.90
10543;DHT22;5320;50.046;10.314;2022-07-11T05:32:59;15.40;99.90
10543;DHT22;5320;50.046;10.314;2022-07-11T05:35:24;15.40;99.90
10543;DHT22;5320;50.046;10.314;2022-07-11T05:37:51;15.30;99.90
10543;DHT22;5320;50.046;10.314;2022-07-11T05:40:16;15.40;99.90
10543;DHT22;5320;50.046;10.314;2022-07-11T05:42:42;15.30;99.90
10543;DHT22;5320;50.046;10.314;2022-07-11T05:45:09;15.30;99.90
10543;DHT22;5320;50.046;10.314;2022-07-11T05:47:34;15.30;99.90
10543;DHT22;5320;50.046;10.314;2022-07-11T05:50:00;15.30;99.90
10543;DHT22;5320;50.046;10.314;2022-07-11T05:52:26;15.20;99.90
10543;DHT22;5320;50.046;10.314;2022-07-11T05:54:52;15.30;99.90
10543;DHT22;5320;50.046;10.314;2022-07-11T05:57:18;15.20;99.90
10543;DHT22;5320;50.046;10.314;2022-07-11T05:59:43;15.20;99.90
10543;DHT22;5320;50.046;10.314;2022-07-11T06:02:11;15.30;99.90
10543;DHT22;5320;50.046;10.314;2022-07-11T06:04:37;15.20;99.90
10543;DHT22;5320;50.046;10.314;2022-07-11T06:07:03;15.10;99.90
10543;DHT22;5320;50.046;10.314;2022-07-11T06:09:29;15.10;99.90
10543;DHT22;5320;50.046;10.314;2022-07-11T06:11:55;15.10;99.90
10543;DHT22;5320;50.046;10.314;2022-07-11T06:14:22;15.00;99.90
10543;DHT22;5320;50.046;10.314;2022-07-11T06:16:49;15.10;99.90
10543;DHT22;5320;50.046;10.314;2022-07-11T06:19:15;15.10;99.90
10543;DHT22;5320;50.046;10.314;2022-07-11T06:21:41;15.10;99.90
10543;DHT22;5320;50.046;10.314;2022-07-11T06:24:08;15.10;99.90
10543;DHT22;5320;50.046;10.314;2022-07-11T06:26:35;15.20;99.90
10543;DHT22;5320;50.046;10.314;2022-07-11T06:29:01;15.30;99.90
10543;DHT22;5320;50.046;10.314;2022-07-11T06:31:27;15.40;99.90
10543;DHT22;5320;50.046;10.314;2022-07-11T06:33:53;15.40;99.90
10543;DHT22;5320;50.046;10.314;2022-07-11T06:36:26;15.30;99.90
10543;DHT22;5320;50.046;10.314;2022-07-11T06:38:53;15.20;99.90
10543;DHT22;5320;50.046;10.314;2022-07-11T06:41:19;15.30;99.90
10543;DHT22;5320;50.046;10.314;2022-07-11T06:43:45;15.40;99.90
10543;DHT22;5320;50.046;10.314;2022-07-11T06:46:14;15.40;99.90
10543;DHT22;5320;50.046;10.314;2022-07-11T06:48:41;15.50;99.90
10543;DHT22;5320;50.046;10.314;2022-07-11T06:51:07;15.50;99.90
10543;DHT22;5320;50.046;10.314;2022-07-11T06:53:32;15.50;99.90
10543;DHT22;5320;50.046;10.314;2022-07-11T06:55:59;15.50;99.90
10543;DHT22;5320;50.046;10.314;2022-07-11T06:58:24;15.50;99.90
10543;DHT22;5320;50.046;10.314;2022-07-11T07:01:00;15.50;99.90
10543;DHT22;5320;50.046;10.314;2022-07-11T07:03:27;15.60;99.90
10543;DHT22;5320;50.046;10.314;2022-07-11T07:05:54;15.60;99.90
10543;DHT22;5320;50.046;10.314;2022-07-11T07:08:28;15.70;99.90
10543;DHT22;5320;50.046;10.314;2022-07-11T07:10:55;15.80;99.90
10543;DHT22;5320;50.046;10.314;2022-07-11T07:13:21;15.90;99.90
10543;DHT22;5320;50.046;10.314;2022-07-11T07:15:49;16.00;99.90
10543;DHT22;5320;50.046;10.314;2022-07-11T07:18:15;16.10;99.90
10543;DHT22;5320;50.046;10.314;2022-07-11T07:20:41;16.20;99.90
10543;DHT22;5320;50.046;10.314;2022-07-11T07:23:07;16.30;99.90
10543;DHT22;5320;50.046;10.314;2022-07-11T07:25:33;16.40;99.90
10543;DHT22;5320;50.046;10.314;2022-07-11T07:27:59;16.30;99.90
10543;DHT22;5320;50.046;10.314;2022-07-11T07:30:25;16.30;99.90
10543;DHT22;5320;50.046;10.314;2022-07-11T07:32:51;16.40;99.90
10543;DHT22;5320;50.046;10.314;2022-07-11T07:35:16;16.40;99.90
10543;DHT22;5320;50.046;10.314;2022-07-11T07:37:42;16.50;99.90
10543;DHT22;5320;50.046;10.314;2022-07-11T07:40:08;16.40;99.90
10543;DHT22;5320;50.046;10.314;2022-07-11T07:42:34;16.10;99.90
10543;DHT22;5320;50.046;10.314;2022-07-11T07:45:00;16.10;99.90
10543;DHT22;5320;50.046;10.314;2022-07-11T07:47:26;16.10;99.90
10543;DHT22;5320;50.046;10.314;2022-07-11T07:49:53;16.10;99.90
10543;DHT22;5320;50.046;10.314;2022-07-11T07:52:19;15.90;99.90
10543;DHT22;5320;50.046;10.314;2022-07-11T07:54:45;15.90;99.90
10543;DHT22;5320;50.046;10.314;2022-07-11T07:57:12;15.70;99.90
10543;DHT22;5320;50.046;10.314;2022-07-11T07:59:38;15.50;99.90
10543;DHT22;5320;50.046;10.314;2022-07-11T08:02:04;15.40;99.90
10543;DHT22;5320;50.046;10.314;2022-07-11T08:04:29;15.30;99.90
10543;DHT22;5320;50.046;10.314;2022-07-11T08:06:55;15.40;99.90
10543;DHT22;5320;50.046;10.314;2022-07-11T08:09:22;15.50;99.90
10543;DHT22;5320;50.046;10.314;2022-07-11T08:11:48;15.60;99.90
10543;DHT22;5320;50.046;10.314;2022-07-11T08:14:14;15.70;99.90
10543;DHT22;5320;50.046;10.314;2022-07-11T08:16:39;15.80;99.90
10543;DHT22;5320;50.046;10.314;2022-07-11T08:19:06;15.80;99.90
10543;DHT22;5320;50.046;10.314;2022-07-11T08:21:33;15.80;99.90
10543;DHT22;5320;50.046;10.314;2022-07-11T08:23:59;15.80;99.90
10543;DHT22;5320;50.046;10.314;2022-07-11T08:26:25;16.00;99.90
10543;DHT22;5320;50.046;10.314;2022-07-11T08:28:51;16.10;99.90
10543;DHT22;5320;50.046;10.314;2022-07-11T08:31:17;16.20;99.90
10543;DHT22;5320;50.046;10.314;2022-07-11T08:33:44;16.20;99.90
10543;DHT22;5320;50.046;10.314;2022-07-11T08:36:09;16.20;99.90
10543;DHT22;5320;50.046;10.314;2022-07-11T08:38:36;16.20;99.90
10543;DHT22;5320;50.046;10.314;2022-07-11T08:41:03;16.30;99.90
10543;DHT22;5320;50.046;10.314;2022-07-11T08:43:29;16.30;99.90
10543;DHT22;5320;50.046;10.314;2022-07-11T08:45:56;16.30;99.90
10543;DHT22;5320;50.046;10.314;2022-07-11T08:48:23;16.30;99.90
10543;DHT22;5320;50.046;10.314;2022-07-11T08:50:52;16.40;99.90
10543;DHT22;5320;50.046;10.314;2022-07-11T08:53:18;16.40;99.90
10543;DHT22;5320;50.046;10.314;2022-07-11T08:55:44;16.40;99.90
10543;DHT22;5320;50.046;10.314;2022-07-11T08:58:13;16.40;99.90
10543;DHT22;5320;50.046;10.314;2022-07-11T09:00:41;16.50;99.90
10543;DHT22;5320;50.046;10.314;2022-07-11T09:03:13;16.50;99.90
10543;DHT22;5320;50.046;10.314;2022-07-11T09:05:39;16.60;99.90
10543;DHT22;5320;50.046;10.314;2022-07-11T09:08:05;16.80;99.90
10543;DHT22;5320;50.046;10.314;2022-07-11T09:10:31;16.80;99.90
10543;DHT22;5320;50.046;10.314;2022-07-11T09:13:08;16.90;99.90
10543;DHT22;5320;50.046;10.314;2022-07-11T09:15:43;17.00;99.90
10543;DHT22;5320;50.046;10.314;2022-07-11T09:21:00;17.00;99.90
10543;DHT22;5320;50.046;10.314;2022-07-11T09:23:45;16.90;99.90
10543;DHT22;5320;50.046;10.314;2022-07-11T09:26:34;17.10;99.90
10543;DHT22;5320;50.046;10.314;2022-07-11T09:29:07;17.30;99.90
10543;DHT22;5320;50.046;10.314;2022-07-11T09:31:35;17.50;99.90
10543;DHT22;5320;50.046;10.314;2022-07-11T09:34:09;17.50;99.90
10543;DHT22;5320;50.046;10.314;2022-07-11T09:39:10;17.60;99.90
10543;DHT22;5320;50.046;10.314;2022-07-11T09:41:37;17.70;99.90
10543;DHT22;5320;50.046;10.314;2022-07-11T09:44:18;17.90;99.90
10543;DHT22;5320;50.046;10.314;2022-07-11T09:46:46;17.90;99.90
10543;DHT22;5320;50.046;10.314;2022-07-11T09:49:14;18.10;99.90
10543;DHT22;5320;50.046;10.314;2022-07-11T09:51:40;18.20;99.90
10543;DHT22;5320;50.046;10.314;2022-07-11T09:54:07;18.10;99.90
10543;DHT22;5320;50.046;10.314;2022-07-11T09:56:44;18.30;99.90
10543;DHT22;5320;50.046;10.314;2022-07-11T09:59:12;18.60;99.90
10543;DHT22;5320;50.046;10.314;2022-07-11T10:01:39;18.70;99.90
10543;DHT22;5320;50.046;10.314;2022-07-11T10:04:09;18.80;99.90
10543;DHT22;5320;50.046;10.314;2022-07-11T10:06:36;18.90;99.90
10543;DHT22;5320;50.046;10.314;2022-07-11T10:09:06;19.10;60.50
10543;DHT22;5320;50.046;10.314;2022-07-11T10:11:32;19.20;32.70
10543;DHT22;5320;50.046;10.314;2022-07-11T10:14:05;19.20;1.00
10543;DHT22;5320;50.046;10.314;2022-07-11T10:16:41;18.70;99.90
10543;DHT22;5320;50.046;10.314;2022-07-11T10:19:30;18.90;99.90
10543;DHT22;5320;50.046;10.314;2022-07-11T10:22:19;19.00;1.00
10543;DHT22;5320;50.046;10.314;2022-07-11T10:24:48;18.50;1.00
10543;DHT22;5320;50.046;10.314;2022-07-11T10:27:31;18.50;99.90
10543;DHT22;5320;50.046;10.314;2022-07-11T10:29:59;19.00;1.00
10543;DHT22;5320;50.046;10.314;2022-07-11T10:32:27;19.20;1.00
10543;DHT22;5320;50.046;10.314;2022-07-11T10:35:09;19.50;1.00
10543;DHT22;5320;50.046;10.314;2022-07-11T10:37:52;19.70;1.00
10543;DHT22;5320;50.046;10.314;2022-07-11T10:43:13;19.80;1.00
10543;DHT22;5320;50.046;10.314;2022-07-11T10:46:00;20.00;99.90
10543;DHT22;5320;50.046;10.314;2022-07-11T10:48:28;20.60;1.00
10543;DHT22;5320;50.046;10.314;2022-07-11T10:53:49;20.50;1.00
10543;DHT22;5320;50.046;10.314;2022-07-11T10:59:23;20.80;1.00
10543;DHT22;5320;50.046;10.314;2022-07-11T11:02:11;21.00;99.90
10543;DHT22;5320;50.046;10.314;2022-07-11T11:04:46;21.20;1.00
10543;DHT22;5320;50.046;10.314;2022-07-11T11:07:32;20.90;1.00
10543;DHT22;5320;50.046;10.314;2022-07-11T11:23:32;19.50;99.90
10543;DHT22;5320;50.046;10.314;2022-07-11T11:28:31;19.00;1.00
10543;DHT22;5320;50.046;10.314;2022-07-11T11:30:59;19.10;1.00
10543;DHT22;5320;50.046;10.314;2022-07-11T11:33:27;18.90;1.00
10543;DHT22;5320;50.046;10.314;2022-07-11T11:36:08;18.60;96.70
10543;DHT22;5320;50.046;10.314;2022-07-11T11:38:40;18.60;51.60
10543;DHT22;5320;50.046;10.314;2022-07-11T11:41:07;18.80;50.30
10543;DHT22;5320;50.046;10.314;2022-07-11T11:43:34;19.00;1.00
10543;DHT22;5320;50.046;10.314;2022-07-11T11:46:00;19.00;46.60
10543;DHT22;5320;50.046;10.314;2022-07-11T11:48:32;19.10;1.00
10543;DHT22;5320;50.046;10.314;2022-07-11T11:51:09;19.10;1.00
10543;DHT22;5320;50.046;10.314;2022-07-11T11:53:40;19.40;1.00
10543;DHT22;5320;50.046;10.314;2022-07-11T11:58:40;19.70;1.00
10543;DHT22;5320;50.046;10.314;2022-07-11T12:01:06;19.50;1.00
10543;DHT22;5320;50.046;10.314;2022-07-11T12:03:52;19.60;1.00
10543;DHT22;5320;50.046;10.314;2022-07-11T12:06:26;19.80;1.00
10543;DHT22;5320;50.046;10.314;2022-07-11T12:08:57;19.70;1.00
10543;DHT22;5320;50.046;10.314;2022-07-11T12:11:23;19.70;1.00
10543;DHT22;5320;50.046;10.314;2022-07-11T12:13:58;19.60;1.00
10543;DHT22;5320;50.046;10.314;2022-07-11T12:16:24;19.60;1.00
10543;DHT22;5320;50.046;10.314;2022-07-11T12:19:22;19.60;1.00
10543;DHT22;5320;50.046;10.314;2022-07-11T12:21:51;20.20;1.00
10543;DHT22;5320;50.046;10.314;2022-07-11T12:24:19;21.00;1.00
10543;DHT22;5320;50.046;10.314;2022-07-11T12:26:46;21.10;1.00
10543;DHT22;5320;50.046;10.314;2022-07-11T12:29:19;20.90;1.00
10543;DHT22;5320;50.046;10.314;2022-07-11T12:34:19;21.10;1.00
10543;DHT22;5320;50.046;10.314;2022-07-11T12:36:45;20.80;1.00
10543;DHT22;5320;50.046;10.314;2022-07-11T12:39:26;20.30;99.90
10543;DHT22;5320;50.046;10.314;2022-07-11T12:41:53;20.30;1.00
10543;DHT22;5320;50.046;10.314;2022-07-11T12:44:27;20.10;1.00
10543;DHT22;5320;50.046;10.314;2022-07-11T12:47:12;20.10;99.90
10543;DHT22;5320;50.046;10.314;2022-07-11T12:49:40;20.20;1.00
10543;DHT22;5320;50.046;10.314;2022-07-11T12:52:13;19.90;1.00
10543;DHT22;5320;50.046;10.314;2022-07-11T12:54:40;19.90;1.00
10543;DHT22;5320;50.046;10.314;2022-07-11T12:57:07;19.50;99.90
10543;DHT22;5320;50.046;10.314;2022-07-11T12:59:34;19.40;1.00
10543;DHT22;5320;50.046;10.314;2022-07-11T13:02:11;19.50;99.90
10543;DHT22;5320;50.046;10.314;2022-07-11T13:07:23;19.80;1.00
10543;DHT22;5320;50.046;10.314;2022-07-11T13:10:10;19.70;1.00
10543;DHT22;5320;50.046;10.314;2022-07-11T13:12:36;19.60;21.50
10543;DHT22;5320;50.046;10.314;2022-07-11T13:15:07;19.60;99.90
10543;DHT22;5320;50.046;10.314;2022-07-11T13:17:50;19.50;1.00
10543;DHT22;5320;50.046;10.314;2022-07-11T13:20:21;19.60;99.90
10543;DHT22;5320;50.046;10.314;2022-07-11T13:22:49;19.70;99.90
10543;DHT22;5320;50.046;10.314;2022-07-11T13:25:17;19.50;1.00
10543;DHT22;5320;50.046;10.314;2022-07-11T13:27:44;19.90;1.00
10543;DHT22;5320;50.046;10.314;2022-07-11T13:30:15;20.10;1.00
10543;DHT22;5320;50.046;10.314;2022-07-11T13:32:49;20.50;99.90
10543;DHT22;5320;50.046;10.314;2022-07-11T13:35:17;20.80;99.90
10543;DHT22;5320;50.046;10.314;2022-07-11T13:37:45;21.00;1.00
10543;DHT22;5320;50.046;10.314;2022-07-11T13:40:12;21.20;99.90
10543;DHT22;5320;50.046;10.314;2022-07-11T13:42:40;21.60;1.00
10543;DHT22;5320;50.046;10.314;2022-07-11T13:45:07;21.20;1.00
10543;DHT22;5320;50.046;10.314;2022-07-11T13:47:33;21.20;1.00
10543;DHT22;5320;50.046;10.314;2022-07-11T13:50:00;20.90;1.00
10543;DHT22;5320;50.046;10.314;2022-07-11T13:52:27;20.60;1.00
10543;DHT22;5320;50.046;10.314;2022-07-11T13:54:53;20.40;82.20
10543;DHT22;5320;50.046;10.314;2022-07-11T13:57:19;20.20;1.00
10543;DHT22;5320;50.046;10.314;2022-07-11T13:59:48;20.10;99.90
10543;DHT22;5320;50.046;10.314;2022-07-11T14:02:14;20.30;1.00
10543;DHT22;5320;50.046;10.314;2022-07-11T14:04:40;20.40;1.00
10543;DHT22;5320;50.046;10.314;2022-07-11T14:07:12;20.50;1.00
10543;DHT22;5320;50.046;10.314;2022-07-11T14:09:39;20.40;1.00
10543;DHT22;5320;50.046;10.314;2022-07-11T14:12:06;20.20;99.90
10543;DHT22;5320;50.046;10.314;2022-07-11T14:14:32;20.30;1.00
10543;DHT22;5320;50.046;10.314;2022-07-11T14:17:02;20.40;1.00
10543;DHT22;5320;50.046;10.314;2022-07-11T14:19:28;20.40;99.90
10543;DHT22;5320;50.046;10.314;2022-07-11T14:21:54;20.40;1.00
10543;DHT22;5320;50.046;10.314;2022-07-11T14:24:20;20.40;99.90
10543;DHT22;5320;50.046;10.314;2022-07-11T14:26:46;20.40;99.90
10543;DHT22;5320;50.046;10.314;2022-07-11T14:29:14;20.40;1.00
10543;DHT22;5320;50.046;10.314;2022-07-11T14:31:43;20.50;1.00
10543;DHT22;5320;50.046;10.314;2022-07-11T14:34:12;20.40;1.00
10543;DHT22;5320;50.046;10.314;2022-07-11T14:36:38;20.50;99.90
10543;DHT22;5320;50.046;10.314;2022-07-11T14:39:07;20.60;99.90
10543;DHT22;5320;50.046;10.314;2022-07-11T14:41:52;20.60;99.90
10543;DHT22;5320;50.046;10.314;2022-07-11T14:44:21;20.60;99.90
10543;DHT22;5320;50.046;10.314;2022-07-11T14:46:47;20.70;1.00
10543;DHT22;5320;50.046;10.314;2022-07-11T14:49:13;20.80;99.90
10543;DHT22;5320;50.046;10.314;2022-07-11T14:51:42;20.80;1.00
10543;DHT22;5320;50.046;10.314;2022-07-11T14:54:08;20.80;99.90
10543;DHT22;5320;50.046;10.314;2022-07-11T14:56:34;20.90;1.00
10543;DHT22;5320;50.046;10.314;2022-07-11T14:59:03;21.00;1.00
10543;DHT22;5320;50.046;10.314;2022-07-11T15:01:33;21.20;99.90
10543;DHT22;5320;50.046;10.314;2022-07-11T15:03:59;21.40;99.90
10543;DHT22;5320;50.046;10.314;2022-07-11T15:06:28;21.30;1.00
10543;DHT22;5320;50.046;10.314;2022-07-11T15:09:13;21.40;1.00
10543;DHT22;5320;50.046;10.314;2022-07-11T15:11:58;21.40;99.90
10543;DHT22;5320;50.046;10.314;2022-07-11T15:14:45;21.60;1.00
10543;DHT22;5320;50.046;10.314;2022-07-11T15:17:13;21.60;1.00
10543;DHT22;5320;50.046;10.314;2022-07-11T15:19:40;21.70;1.00
10543;DHT22;5320;50.046;10.314;2022-07-11T15:22:13;21.80;1.00
10543;DHT22;5320;50.046;10.314;2022-07-11T15:24:40;21.90;99.90
10543;DHT22;5320;50.046;10.314;2022-07-11T15:27:09;21.80;1.00
10543;DHT22;5320;50.046;10.314;2022-07-11T15:29:36;21.40;11.50
10543;DHT22;5320;50.046;10.314;2022-07-11T15:32:03;21.30;99.90
10543;DHT22;5320;50.046;10.314;2022-07-11T15:34:30;21.60;1.00
10543;DHT22;5320;50.046;10.314;2022-07-11T15:36:58;21.50;1.00
10543;DHT22;5320;50.046;10.314;2022-07-11T15:39:24;21.30;99.90
10543;DHT22;5320;50.046;10.314;2022-07-11T15:41:54;21.30;1.00
10543;DHT22;5320;50.046;10.314;2022-07-11T15:44:20;21.20;1.00
10543;DHT22;5320;50.046;10.314;2022-07-11T15:46:49;21.20;1.00
10543;DHT22;5320;50.046;10.314;2022-07-11T15:49:15;21.20;1.00
10543;DHT22;5320;50.046;10.314;2022-07-11T15:51:41;21.30;1.00
10543;DHT22;5320;50.046;10.314;2022-07-11T15:54:08;21.50;17.30
10543;DHT22;5320;50.046;10.314;2022-07-11T15:56:37;21.60;99.90
10543;DHT22;5320;50.046;10.314;2022-07-11T15:59:03;21.60;85.80
10543;DHT22;5320;50.046;10.314;2022-07-11T16:01:29;21.50;1.00
10543;DHT22;5320;50.046;10.314;2022-07-11T16:04:04;21.40;1.00
10543;DHT22;5320;50.046;10.314;2022-07-11T16:06:36;21.60;1.00
10543;DHT22;5320;50.046;10.314;2022-07-11T16:09:05;21.60;1.00
10543;DHT22;5320;50.046;10.314;2022-07-11T16:11:32;21.50;1.00
10543;DHT22;5320;50.046;10.314;2022-07-11T16:14:00;21.80;1.00
10543;DHT22;5320;50.046;10.314;2022-07-11T16:16:32;21.90;99.90
10543;DHT22;5320;50.046;10.314;2022-07-11T16:19:02;21.90;1.00
10543;DHT22;5320;50.046;10.314;2022-07-11T16:21:28;21.80;87.60
10543;DHT22;5320;50.046;10.314;2022-07-11T16:23:58;21.70;99.90